sensor_id;sensor_type;location;lat;lon;timestamp;temperature;humidity
7708;DHT22;3896;48.758;8.888;2022-12-29T00:00:52;7.90;99.90
7708;DHT22;3896;48.758;8.888;2022-12-29T00:03:17;7.90;99.90
7708;DHT22;3896;48.758;8.888;2022-12-29T00:05:43;7.90;99.90
7708;DHT22;3896;48.758;8.888;2022-12-29T00:08:08;7.90;99.90
7708;DHT22;3896;48.758;8.888;2022-12-29T00:10:34;7.90;99.90
7708;DHT22;3896;48.758;8.888;2022-12-29T00:12:59;8.00;99.80
7708;DHT22;3896;48.758;8.888;2022-12-29T00:15:44;8.00;99.90
7708;DHT22;3896;48.758;8.888;2022-12-29T00:18:09;8.00;99.90
7708;DHT22;3896;48.758;8.888;2022-12-29T00:20:36;8.00;99.90
7708;DHT22;3896;48.758;8.888;2022-12-29T00:23:28;8.00;99.90
7708;DHT22;3896;48.758;8.888;2022-12-29T00:26:16;8.00;99.80
7708;DHT22;3896;48.758;8.888;2022-12-29T00:29:00;8.00;99.70
7708;DHT22;3896;48.758;8.888;2022-12-29T00:31:44;8.00;99.70
7708;DHT22;3896;48.758;8.888;2022-12-29T00:34:28;8.10;99.70
7708;DHT22;3896;48.758;8.888;2022-12-29T00:37:12;8.10;99.70
7708;DHT22;3896;48.758;8.888;2022-12-29T00:39:38;8.10;99.60
7708;DHT22;3896;48.758;8.888;2022-12-29T00:42:22;8.10;99.60
7708;DHT22;3896;48.758;8.888;2022-12-29T00:45:06;8.10;99.60
7708;DHT22;3896;48.758;8.888;2022-12-29T00:47:32;8.10;99.70
7708;DHT22;3896;48.758;8.888;2022-12-29T00:49:57;8.20;99.80
7708;DHT22;3896;48.758;8.888;2022-12-29T00:52:23;8.20;99.90
7708;DHT22;3896;48.758;8.888;2022-12-29T00:54:48;8.20;99.90
7708;DHT22;3896;48.758;8.888;2022-12-29T00:57:14;8.20;99.90
7708;DHT22;3896;48.758;8.888;2022-12-29T00:59:40;8.20;99.90
7708;DHT22;3896;48.758;8.888;2022-12-29T01:02:07;8.20;99.90
7708;DHT22;3896;48.758;8.888;2022-12-29T01:04:33;8.20;99.90
7708;DHT22;3896;48.758;8.888;2022-12-29T01:06:58;8.20;99.90
7708;DHT22;3896;48.758;8.888;2022-12-29T01:09:24;8.20;99.90
7708;DHT22;3896;48.758;8.888;2022-12-29T01:12:09;8.20;99.90
7708;DHT22;3896;48.758;8.888;2022-12-29T01:14:36;8.20;99.90
7708;DHT22;3896;48.758;8.888;2022-12-29T01:17:01;8.20;99.90
7708;DHT22;3896;48.758;8.888;2022-12-29T01:19:27;8.20;99.90
7708;DHT22;3896;48.758;8.888;2022-12-29T01:21:52;8.20;99.90
7708;DHT22;3896;48.758;8.888;2022-12-29T01:24:19;8.20;99.90
7708;DHT22;3896;48.758;8.888;2022-12-29T01:26:45;8.30;99.90
7708;DHT22;3896;48.758;8.888;2022-12-29T01:29:11;8.30;99.90
7708;DHT22;3896;48.758;8.888;2022-12-29T01:31:37;8.30;99.90
7708;DHT22;3896;48.758;8.888;2022-12-29T01:34:04;8.30;99.90
7708;DHT22;3896;48.758;8.888;2022-12-29T01:36:30;8.40;99.90
7708;DHT22;3896;48.758;8.888;2022-12-29T01:38:55;8.40;99.90
7708;DHT22;3896;48.758;8.888;2022-12-29T01:41:21;8.40;99.90
7708;DHT22;3896;48.758;8.888;2022-12-29T01:43:52;8.50;99.90
7708;DHT22;3896;48.758;8.888;2022-12-29T01:46:38;8.50;99.90
7708;DHT22;3896;48.758;8.888;2022-12-29T01:51:37;8.50;99.90
7708;DHT22;3896;48.758;8.888;2022-12-29T01:54:07;8.60;99.90
7708;DHT22;3896;48.758;8.888;2022-12-29T01:56:35;8.60;99.90
7708;DHT22;3896;48.758;8.888;2022-12-29T01:59:04;8.60;99.80
7708;DHT22;3896;48.758;8.888;2022-12-29T02:01:31;8.60;99.70
7708;DHT22;3896;48.758;8.888;2022-12-29T02:03:58;8.70;99.60
7708;DHT22;3896;48.758;8.888;2022-12-29T02:06:35;8.70;99.50
7708;DHT22;3896;48.758;8.888;2022-12-29T02:09:02;8.70;99.40
7708;DHT22;3896;48.758;8.888;2022-12-29T02:11:29;8.80;99.40
7708;DHT22;3896;48.758;8.888;2022-12-29T02:13:55;8.80;99.20
7708;DHT22;3896;48.758;8.888;2022-12-29T02:16:33;8.80;99.10
7708;DHT22;3896;48.758;8.888;2022-12-29T02:19:17;8.80;99.00
7708;DHT22;3896;48.758;8.888;2022-12-29T02:27:55;8.90;98.60
7708;DHT22;3896;48.758;8.888;2022-12-29T02:35:43;9.00;98.30
7708;DHT22;3896;48.758;8.888;2022-12-29T02:38:15;9.00;98.20
7708;DHT22;3896;48.758;8.888;2022-12-29T02:41:02;9.10;98.10
7708;DHT22;3896;48.758;8.888;2022-12-29T02:43:39;9.10;98.00
7708;DHT22;3896;48.758;8.888;2022-12-29T02:46:11;9.10;97.90
7708;DHT22;3896;48.758;8.888;2022-12-29T02:48:45;9.10;97.80
7708;DHT22;3896;48.758;8.888;2022-12-29T02:51:36;9.20;97.70
7708;DHT22;3896;48.758;8.888;2022-12-29T02:54:03;9.20;97.60
7708;DHT22;3896;48.758;8.888;2022-12-29T02:56:47;9.20;97.50
7708;DHT22;3896;48.758;8.888;2022-12-29T02:59:13;9.20;97.60
7708;DHT22;3896;48.758;8.888;2022-12-29T03:05:04;9.30;97.50
7708;DHT22;3896;48.758;8.888;2022-12-29T03:13:16;9.30;97.60
7708;DHT22;3896;48.758;8.888;2022-12-29T03:19:01;9.30;97.70
7708;DHT22;3896;48.758;8.888;2022-12-29T03:21:41;9.30;97.70
7708;DHT22;3896;48.758;8.888;2022-12-29T03:24:29;9.30;97.60
7708;DHT22;3896;48.758;8.888;2022-12-29T03:26:58;9.30;97.50
7708;DHT22;3896;48.758;8.888;2022-12-29T03:29:27;9.40;97.50
7708;DHT22;3896;48.758;8.888;2022-12-29T03:31:55;9.40;97.30
7708;DHT22;3896;48.758;8.888;2022-12-29T03:34:22;9.40;97.20
7708;DHT22;3896;48.758;8.888;2022-12-29T03:37:00;9.50;97.10
7708;DHT22;3896;48.758;8.888;2022-12-29T03:39:27;9.50;96.80
7708;DHT22;3896;48.758;8.888;2022-12-29T03:41:59;9.50;96.60
7708;DHT22;3896;48.758;8.888;2022-12-29T03:44:38;9.60;96.40
7708;DHT22;3896;48.758;8.888;2022-12-29T03:47:06;9.60;96.30
7708;DHT22;3896;48.758;8.888;2022-12-29T03:49:32;9.70;96.20
7708;DHT22;3896;48.758;8.888;2022-12-29T03:51:58;9.70;96.10
7708;DHT22;3896;48.758;8.888;2022-12-29T03:54:23;9.70;96.00
7708;DHT22;3896;48.758;8.888;2022-12-29T03:56:49;9.80;96.00
7708;DHT22;3896;48.758;8.888;2022-12-29T03:59:15;9.80;95.80
7708;DHT22;3896;48.758;8.888;2022-12-29T04:01:40;9.80;95.70
7708;DHT22;3896;48.758;8.888;2022-12-29T04:04:06;9.80;95.70
7708;DHT22;3896;48.758;8.888;2022-12-29T04:06:31;9.90;95.60
7708;DHT22;3896;48.758;8.888;2022-12-29T04:08:57;9.90;95.50
7708;DHT22;3896;48.758;8.888;2022-12-29T04:11:22;9.90;95.50
7708;DHT22;3896;48.758;8.888;2022-12-29T04:13:48;9.90;95.40
7708;DHT22;3896;48.758;8.888;2022-12-29T04:16:14;10.00;94.80
7708;DHT22;3896;48.758;8.888;2022-12-29T04:18:39;10.00;94.80
7708;DHT22;3896;48.758;8.888;2022-12-29T04:21:05;10.00;94.80
7708;DHT22;3896;48.758;8.888;2022-12-29T04:23:34;10.00;94.80
7708;DHT22;3896;48.758;8.888;2022-12-29T04:26:00;10.00;94.80
7708;DHT22;3896;48.758;8.888;2022-12-29T04:28:26;10.10;94.80
7708;DHT22;3896;48.758;8.888;2022-12-29T04:30:52;10.10;94.60
7708;DHT22;3896;48.758;8.888;2022-12-29T04:33:18;10.10;94.50
7708;DHT22;3896;48.758;8.888;2022-12-29T04:35:44;10.10;94.50
7708;DHT22;3896;48.758;8.888;2022-12-29T04:38:10;10.20;94.50
7708;DHT22;3896;48.758;8.888;2022-12-29T04:40:38;10.20;94.80
7708;DHT22;3896;48.758;8.888;2022-12-29T04:43:05;10.20;94.50
7708;DHT22;3896;48.758;8.888;2022-12-29T04:45:30;10.20;94.40
7708;DHT22;3896;48.758;8.888;2022-12-29T04:47:56;10.30;94.40
7708;DHT22;3896;48.758;8.888;2022-12-29T04:50:21;10.30;94.70
7708;DHT22;3896;48.758;8.888;2022-12-29T04:52:47;10.30;94.30
7708;DHT22;3896;48.758;8.888;2022-12-29T04:55:13;10.30;94.40
7708;DHT22;3896;48.758;8.888;2022-12-29T04:57:38;10.40;94.40
7708;DHT22;3896;48.758;8.888;2022-12-29T05:00:04;10.40;94.40
7708;DHT22;3896;48.758;8.888;2022-12-29T05:02:30;10.40;94.40
7708;DHT22;3896;48.758;8.888;2022-12-29T05:04:55;10.40;94.40
7708;DHT22;3896;48.758;8.888;2022-12-29T05:07:21;10.40;94.40
7708;DHT22;3896;48.758;8.888;2022-12-29T05:09:46;10.40;94.40
7708;DHT22;3896;48.758;8.888;2022-12-29T05:12:12;10.50;94.40
7708;DHT22;3896;48.758;8.888;2022-12-29T05:14:37;10.50;94.40
7708;DHT22;3896;48.758;8.888;2022-12-29T05:17:03;10.50;94.40
7708;DHT22;3896;48.758;8.888;2022-12-29T05:19:28;10.50;94.30
7708;DHT22;3896;48.758;8.888;2022-12-29T05:21:54;10.60;94.40
7708;DHT22;3896;48.758;8.888;2022-12-29T05:24:20;10.60;94.40
7708;DHT22;3896;48.758;8.888;2022-12-29T05:26:45;10.60;94.30
7708;DHT22;3896;48.758;8.888;2022-12-29T05:29:11;10.60;94.40
7708;DHT22;3896;48.758;8.888;2022-12-29T05:31:36;10.60;94.30
7708;DHT22;3896;48.758;8.888;2022-12-29T05:34:02;10.60;94.20
7708;DHT22;3896;48.758;8.888;2022-12-29T05:36:28;10.70;94.20
7708;DHT22;3896;48.758;8.888;2022-12-29T05:38:54;10.70;94.10
7708;DHT22;3896;48.758;8.888;2022-12-29T05:41:19;10.70;94.20
7708;DHT22;3896;48.758;8.888;2022-12-29T05:43:45;10.70;94.10
7708;DHT22;3896;48.758;8.888;2022-12-29T05:46:10;10.70;94.10
7708;DHT22;3896;48.758;8.888;2022-12-29T05:48:36;10.80;94.10
7708;DHT22;3896;48.758;8.888;2022-12-29T05:51:01;10.80;94.00
7708;DHT22;3896;48.758;8.888;2022-12-29T05:53:27;10.80;94.00
7708;DHT22;3896;48.758;8.888;2022-12-29T05:55:52;10.80;94.00
7708;DHT22;3896;48.758;8.888;2022-12-29T05:58:18;10.80;93.90
7708;DHT22;3896;48.758;8.888;2022-12-29T06:00:44;10.80;93.80
7708;DHT22;3896;48.758;8.888;2022-12-29T06:03:10;10.90;93.70
7708;DHT22;3896;48.758;8.888;2022-12-29T06:05:35;10.90;93.70
7708;DHT22;3896;48.758;8.888;2022-12-29T06:08:01;10.90;93.70
7708;DHT22;3896;48.758;8.888;2022-12-29T06:10:26;10.90;93.70
7708;DHT22;3896;48.758;8.888;2022-12-29T06:12:52;10.90;93.60
7708;DHT22;3896;48.758;8.888;2022-12-29T06:15:18;10.90;93.60
7708;DHT22;3896;48.758;8.888;2022-12-29T06:17:44;10.90;93.50
7708;DHT22;3896;48.758;8.888;2022-12-29T06:20:10;10.80;93.40
7708;DHT22;3896;48.758;8.888;2022-12-29T06:22:36;10.90;93.40
7708;DHT22;3896;48.758;8.888;2022-12-29T06:25:02;10.90;93.40
7708;DHT22;3896;48.758;8.888;2022-12-29T06:27:28;10.90;93.40
7708;DHT22;3896;48.758;8.888;2022-12-29T06:29:54;10.90;93.30
7708;DHT22;3896;48.758;8.888;2022-12-29T06:32:19;10.90;93.30
7708;DHT22;3896;48.758;8.888;2022-12-29T06:34:45;10.90;93.10
7708;DHT22;3896;48.758;8.888;2022-12-29T06:37:11;10.80;93.10
7708;DHT22;3896;48.758;8.888;2022-12-29T06:39:36;10.80;93.00
7708;DHT22;3896;48.758;8.888;2022-12-29T06:42:02;10.80;92.90
7708;DHT22;3896;48.758;8.888;2022-12-29T06:44:28;10.80;92.90
7708;DHT22;3896;48.758;8.888;2022-12-29T06:46:53;10.80;92.70
7708;DHT22;3896;48.758;8.888;2022-12-29T06:49:19;10.80;92.70
7708;DHT22;3896;48.758;8.888;2022-12-29T06:51:45;10.80;92.70
7708;DHT22;3896;48.758;8.888;2022-12-29T06:54:10;10.80;92.60
7708;DHT22;3896;48.758;8.888;2022-12-29T06:56:36;10.80;92.50
7708;DHT22;3896;48.758;8.888;2022-12-29T06:59:01;10.80;92.40
7708;DHT22;3896;48.758;8.888;2022-12-29T07:01:27;10.80;92.30
7708;DHT22;3896;48.758;8.888;2022-12-29T07:03:53;10.80;92.30
7708;DHT22;3896;48.758;8.888;2022-12-29T07:06:18;10.80;92.30
7708;DHT22;3896;48.758;8.888;2022-12-29T07:08:44;10.80;92.20
7708;DHT22;3896;48.758;8.888;2022-12-29T07:11:10;10.80;92.20
7708;DHT22;3896;48.758;8.888;2022-12-29T07:13:36;10.80;92.10
7708;DHT22;3896;48.758;8.888;2022-12-29T07:16:08;10.80;92.00
7708;DHT22;3896;48.758;8.888;2022-12-29T07:18:34;10.70;92.00
7708;DHT22;3896;48.758;8.888;2022-12-29T07:21:00;10.70;91.90
7708;DHT22;3896;48.758;8.888;2022-12-29T07:23:26;10.70;91.90
7708;DHT22;3896;48.758;8.888;2022-12-29T07:26:02;10.70;91.80
7708;DHT22;3896;48.758;8.888;2022-12-29T07:28:28;10.70;91.80
7708;DHT22;3896;48.758;8.888;2022-12-29T07:30:53;10.70;91.70
7708;DHT22;3896;48.758;8.888;2022-12-29T07:33:19;10.70;91.70
7708;DHT22;3896;48.758;8.888;2022-12-29T07:35:44;10.70;91.60
7708;DHT22;3896;48.758;8.888;2022-12-29T07:38:10;10.70;91.60
7708;DHT22;3896;48.758;8.888;2022-12-29T07:40:35;10.70;91.50
7708;DHT22;3896;48.758;8.888;2022-12-29T07:43:01;10.70;91.50
7708;DHT22;3896;48.758;8.888;2022-12-29T07:45:27;10.60;91.40
7708;DHT22;3896;48.758;8.888;2022-12-29T07:47:52;10.60;91.40
7708;DHT22;3896;48.758;8.888;2022-12-29T07:50:18;10.60;91.40
7708;DHT22;3896;48.758;8.888;2022-12-29T07:52:43;10.60;91.30
7708;DHT22;3896;48.758;8.888;2022-12-29T07:55:10;10.60;91.30
7708;DHT22;3896;48.758;8.888;2022-12-29T07:57:35;10.60;91.20
7708;DHT22;3896;48.758;8.888;2022-12-29T08:00:01;10.60;91.20
7708;DHT22;3896;48.758;8.888;2022-12-29T08:02:27;10.60;91.10
7708;DHT22;3896;48.758;8.888;2022-12-29T08:04:52;10.60;91.10
7708;DHT22;3896;48.758;8.888;2022-12-29T08:07:18;10.60;91.00
7708;DHT22;3896;48.758;8.888;2022-12-29T08:09:43;10.60;91.00
7708;DHT22;3896;48.758;8.888;2022-12-29T08:12:10;10.60;91.00
7708;DHT22;3896;48.758;8.888;2022-12-29T08:14:36;10.60;91.00
7708;DHT22;3896;48.758;8.888;2022-12-29T08:17:01;10.60;90.90
7708;DHT22;3896;48.758;8.888;2022-12-29T08:19:27;10.60;90.90
7708;DHT22;3896;48.758;8.888;2022-12-29T08:21:53;10.60;90.90
7708;DHT22;3896;48.758;8.888;2022-12-29T08:24:19;10.60;90.80
7708;DHT22;3896;48.758;8.888;2022-12-29T08:26:44;10.60;90.80
7708;DHT22;3896;48.758;8.888;2022-12-29T08:29:10;10.70;90.70
7708;DHT22;3896;48.758;8.888;2022-12-29T08:31:35;10.70;90.60
7708;DHT22;3896;48.758;8.888;2022-12-29T08:34:01;10.70;90.40
7708;DHT22;3896;48.758;8.888;2022-12-29T08:36:28;10.70;90.40
7708;DHT22;3896;48.758;8.888;2022-12-29T08:38:54;10.70;90.30
7708;DHT22;3896;48.758;8.888;2022-12-29T08:41:20;10.80;90.20
7708;DHT22;3896;48.758;8.888;2022-12-29T08:43:49;10.80;90.10
7708;DHT22;3896;48.758;8.888;2022-12-29T08:46:15;10.80;90.30
7708;DHT22;3896;48.758;8.888;2022-12-29T08:48:41;10.80;90.10
7708;DHT22;3896;48.758;8.888;2022-12-29T08:51:07;10.80;90.00
7708;DHT22;3896;48.758;8.888;2022-12-29T08:53:33;10.90;90.00
7708;DHT22;3896;48.758;8.888;2022-12-29T08:56:00;10.90;90.20
7708;DHT22;3896;48.758;8.888;2022-12-29T08:58:26;11.00;90.10
7708;DHT22;3896;48.758;8.888;2022-12-29T09:00:56;11.00;90.00
7708;DHT22;3896;48.758;8.888;2022-12-29T09:03:23;11.00;90.00
7708;DHT22;3896;48.758;8.888;2022-12-29T09:05:53;11.00;89.80
7708;DHT22;3896;48.758;8.888;2022-12-29T09:08:19;11.10;89.70
7708;DHT22;3896;48.758;8.888;2022-12-29T09:10:45;11.10;89.40
7708;DHT22;3896;48.758;8.888;2022-12-29T09:13:12;11.20;89.50
7708;DHT22;3896;48.758;8.888;2022-12-29T09:15:38;11.20;89.30
7708;DHT22;3896;48.758;8.888;2022-12-29T09:18:05;11.30;89.40
7708;DHT22;3896;48.758;8.888;2022-12-29T09:20:30;11.30;89.30
7708;DHT22;3896;48.758;8.888;2022-12-29T09:22:56;11.40;89.30
7708;DHT22;3896;48.758;8.888;2022-12-29T09:25:22;11.40;89.00
7708;DHT22;3896;48.758;8.888;2022-12-29T09:27:52;11.50;88.90
7708;DHT22;3896;48.758;8.888;2022-12-29T09:30:19;11.60;88.70
7708;DHT22;3896;48.758;8.888;2022-12-29T09:32:45;11.60;88.20
7708;DHT22;3896;48.758;8.888;2022-12-29T09:35:12;11.70;88.00
7708;DHT22;3896;48.758;8.888;2022-12-29T09:37:38;11.80;87.90
7708;DHT22;3896;48.758;8.888;2022-12-29T09:40:04;11.90;87.60
7708;DHT22;3896;48.758;8.888;2022-12-29T09:45:43;12.00;87.50
7708;DHT22;3896;48.758;8.888;2022-12-29T09:48:17;12.10;87.40
7708;DHT22;3896;48.758;8.888;2022-12-29T09:50:48;12.10;87.10
7708;DHT22;3896;48.758;8.888;2022-12-29T09:53:36;12.20;86.70
7708;DHT22;3896;48.758;8.888;2022-12-29T09:56:05;12.20;86.40
7708;DHT22;3896;48.758;8.888;2022-12-29T09:58:39;12.40;86.60
7708;DHT22;3896;48.758;8.888;2022-12-29T10:01:06;12.40;86.40
7708;DHT22;3896;48.758;8.888;2022-12-29T10:03:47;12.50;86.60
7708;DHT22;3896;48.758;8.888;2022-12-29T10:06:39;12.50;86.30
7708;DHT22;3896;48.758;8.888;2022-12-29T10:18:23;12.70;85.70
7708;DHT22;3896;48.758;8.888;2022-12-29T10:20:58;12.80;85.70
7708;DHT22;3896;48.758;8.888;2022-12-29T10:23:42;12.90;85.40
7708;DHT22;3896;48.758;8.888;2022-12-29T10:26:17;12.90;85.20
7708;DHT22;3896;48.758;8.888;2022-12-29T10:31:28;13.10;85.10
7708;DHT22;3896;48.758;8.888;2022-12-29T10:33:58;13.10;84.80
7708;DHT22;3896;48.758;8.888;2022-12-29T10:36:35;13.20;84.80
7708;DHT22;3896;48.758;8.888;2022-12-29T10:39:20;13.30;85.00
7708;DHT22;3896;48.758;8.888;2022-12-29T10:44:41;13.50;84.40
7708;DHT22;3896;48.758;8.888;2022-12-29T10:47:13;13.60;84.10
7708;DHT22;3896;48.758;8.888;2022-12-29T10:49:43;13.70;84.00
7708;DHT22;3896;48.758;8.888;2022-12-29T10:52:11;13.80;83.90
7708;DHT22;3896;48.758;8.888;2022-12-29T10:55:00;13.90;83.70
7708;DHT22;3896;48.758;8.888;2022-12-29T10:57:35;14.00;83.20
7708;DHT22;3896;48.758;8.888;2022-12-29T11:00:12;14.10;82.00
7708;DHT22;3896;48.758;8.888;2022-12-29T11:08:04;14.20;79.90
7708;DHT22;3896;48.758;8.888;2022-12-29T11:13:01;14.30;78.60
7708;DHT22;3896;48.758;8.888;2022-12-29T11:15:27;14.30;78.30
7708;DHT22;3896;48.758;8.888;2022-12-29T11:18:01;14.30;78.20
7708;DHT22;3896;48.758;8.888;2022-12-29T11:20:38;14.40;77.60
7708;DHT22;3896;48.758;8.888;2022-12-29T11:23:21;14.40;76.60
7708;DHT22;3896;48.758;8.888;2022-12-29T11:28:42;14.40;75.70
7708;DHT22;3896;48.758;8.888;2022-12-29T11:31:09;14.40;75.30
7708;DHT22;3896;48.758;8.888;2022-12-29T11:33:37;14.40;75.10
7708;DHT22;3896;48.758;8.888;2022-12-29T11:36:06;14.30;74.90
7708;DHT22;3896;48.758;8.888;2022-12-29T11:38:39;14.30;74.40
7708;DHT22;3896;48.758;8.888;2022-12-29T11:41:10;14.30;74.20
7708;DHT22;3896;48.758;8.888;2022-12-29T11:43:39;14.20;74.20
7708;DHT22;3896;48.758;8.888;2022-12-29T11:46:06;14.20;75.00
7708;DHT22;3896;48.758;8.888;2022-12-29T11:48:38;14.20;75.50
7708;DHT22;3896;48.758;8.888;2022-12-29T11:51:05;14.20;75.90
7708;DHT22;3896;48.758;8.888;2022-12-29T11:53:37;14.10;76.20
7708;DHT22;3896;48.758;8.888;2022-12-29T11:56:08;14.10;77.10
7708;DHT22;3896;48.758;8.888;2022-12-29T11:58:38;14.10;78.20
7708;DHT22;3896;48.758;8.888;2022-12-29T12:01:23;14.00;78.90
7708;DHT22;3896;48.758;8.888;2022-12-29T12:04:06;14.00;79.70
7708;DHT22;3896;48.758;8.888;2022-12-29T12:06:35;14.00;80.20
7708;DHT22;3896;48.758;8.888;2022-12-29T12:09:07;14.00;80.70
7708;DHT22;3896;48.758;8.888;2022-12-29T12:11:39;13.90;81.20
7708;DHT22;3896;48.758;8.888;2022-12-29T12:19:31;13.90;81.50
7708;DHT22;3896;48.758;8.888;2022-12-29T12:24:49;13.80;81.90
7708;DHT22;3896;48.758;8.888;2022-12-29T12:27:28;13.80;82.00
7708;DHT22;3896;48.758;8.888;2022-12-29T12:30:24;13.90;82.10
7708;DHT22;3896;48.758;8.888;2022-12-29T12:33:11;13.80;81.90
7708;DHT22;3896;48.758;8.888;2022-12-29T12:35:48;13.80;81.90
7708;DHT22;3896;48.758;8.888;2022-12-29T12:41:19;13.90;82.00
7708;DHT22;3896;48.758;8.888;2022-12-29T12:46:31;14.10;82.00
7708;DHT22;3896;48.758;8.888;2022-12-29T12:57:41;14.60;81.70
7708;DHT22;3896;48.758;8.888;2022-12-29T13:00:09;14.80;81.80
7708;DHT22;3896;48.758;8.888;2022-12-29T13:03:02;15.00;81.30
7708;DHT22;3896;48.758;8.888;2022-12-29T13:17:09;15.50;79.10
7708;DHT22;3896;48.758;8.888;2022-12-29T13:19:56;15.60;78.50
7708;DHT22;3896;48.758;8.888;2022-12-29T13:25:41;15.60;77.60
7708;DHT22;3896;48.758;8.888;2022-12-29T13:39:08;15.30;76.20
7708;DHT22;3896;48.758;8.888;2022-12-29T13:41:40;15.30;76.60
7708;DHT22;3896;48.758;8.888;2022-12-29T13:44:15;15.20;76.50
7708;DHT22;3896;48.758;8.888;2022-12-29T13:46:43;15.20;76.60
7708;DHT22;3896;48.758;8.888;2022-12-29T13:49:21;15.20;76.80
7708;DHT22;3896;48.758;8.888;2022-12-29T13:51:54;15.10;76.80
7708;DHT22;3896;48.758;8.888;2022-12-29T13:57:37;14.90;77.10
7708;DHT22;3896;48.758;8.888;2022-12-29T14:00:13;14.90;77.30
7708;DHT22;3896;48.758;8.888;2022-12-29T14:03:17;14.90;77.60
7708;DHT22;3896;48.758;8.888;2022-12-29T14:05:36;14.80;77.70
7708;DHT22;3896;48.758;8.888;2022-12-29T14:08:04;14.80;78.10
7708;DHT22;3896;48.758;8.888;2022-12-29T14:10:38;14.80;78.40
7708;DHT22;3896;48.758;8.888;2022-12-29T14:13:19;14.70;78.50
7708;DHT22;3896;48.758;8.888;2022-12-29T14:15:52;14.70;78.90
7708;DHT22;3896;48.758;8.888;2022-12-29T14:18:23;14.60;79.40
7708;DHT22;3896;48.758;8.888;2022-12-29T14:23:28;14.60;79.80
7708;DHT22;3896;48.758;8.888;2022-12-29T14:25:59;14.60;79.90
7708;DHT22;3896;48.758;8.888;2022-12-29T14:28:28;14.70;80.00
7708;DHT22;3896;48.758;8.888;2022-12-29T14:30:58;14.80;79.90
7708;DHT22;3896;48.758;8.888;2022-12-29T14:33:28;14.80;79.80
7708;DHT22;3896;48.758;8.888;2022-12-29T14:35:55;14.90;79.70
7708;DHT22;3896;48.758;8.888;2022-12-29T14:38:24;14.90;79.50
7708;DHT22;3896;48.758;8.888;2022-12-29T14:40:51;14.90;79.50
7708;DHT22;3896;48.758;8.888;2022-12-29T14:43:25;14.90;79.30
7708;DHT22;3896;48.758;8.888;2022-12-29T14:45:54;14.90;79.40
7708;DHT22;3896;48.758;8.888;2022-12-29T14:48:27;14.90;79.50
7708;DHT22;3896;48.758;8.888;2022-12-29T14:50:55;14.90;79.40
7708;DHT22;3896;48.758;8.888;2022-12-29T14:56:09;14.70;79.20
7708;DHT22;3896;48.758;8.888;2022-12-29T14:58:53;14.70;79.50
7708;DHT22;3896;48.758;8.888;2022-12-29T15:03:59;14.60;79.70
7708;DHT22;3896;48.758;8.888;2022-12-29T15:06:29;14.60;79.90
7708;DHT22;3896;48.758;8.888;2022-12-29T15:09:15;14.60;80.00
7708;DHT22;3896;48.758;8.888;2022-12-29T15:11:52;14.50;79.90
7708;DHT22;3896;48.758;8.888;2022-12-29T15:19:50;14.30;80.30
7708;DHT22;3896;48.758;8.888;2022-12-29T15:22:16;14.30;80.60
7708;DHT22;3896;48.758;8.888;2022-12-29T15:24:42;14.20;80.90
7708;DHT22;3896;48.758;8.888;2022-12-29T15:27:18;14.10;81.10
7708;DHT22;3896;48.758;8.888;2022-12-29T15:29:45;14.40;81.30
7708;DHT22;3896;48.758;8.888;2022-12-29T15:32:22;14.20;81.30
7708;DHT22;3896;48.758;8.888;2022-12-29T15:34:55;14.00;82.40
7708;DHT22;3896;48.758;8.888;2022-12-29T15:37:23;13.90;83.30
7708;DHT22;3896;48.758;8.888;2022-12-29T15:39:50;13.70;84.40
7708;DHT22;3896;48.758;8.888;2022-12-29T15:45:17;13.50;85.70
7708;DHT22;3896;48.758;8.888;2022-12-29T15:47:45;13.40;86.60
7708;DHT22;3896;48.758;8.888;2022-12-29T15:50:27;13.30;87.00
7708;DHT22;3896;48.758;8.888;2022-12-29T15:52:54;13.20;87.40
7708;DHT22;3896;48.758;8.888;2022-12-29T15:55:35;13.20;87.90
7708;DHT22;3896;48.758;8.888;2022-12-29T15:58:15;13.00;88.10
7708;DHT22;3896;48.758;8.888;2022-12-29T16:00:47;13.00;88.70
7708;DHT22;3896;48.758;8.888;2022-12-29T16:03:14;12.90;89.40
7708;DHT22;3896;48.758;8.888;2022-12-29T16:05:40;12.80;89.70
7708;DHT22;3896;48.758;8.888;2022-12-29T16:08:27;12.80;90.20
7708;DHT22;3896;48.758;8.888;2022-12-29T16:10:54;12.70;90.20
7708;DHT22;3896;48.758;8.888;2022-12-29T16:13:32;12.60;90.60
7708;DHT22;3896;48.758;8.888;2022-12-29T16:16:07;12.60;90.70
7708;DHT22;3896;48.758;8.888;2022-12-29T16:18:36;12.50;90.90
7708;DHT22;3896;48.758;8.888;2022-12-29T16:21:04;12.50;91.20
7708;DHT22;3896;48.758;8.888;2022-12-29T16:23:31;12.50;91.40
7708;DHT22;3896;48.758;8.888;2022-12-29T16:25:58;12.40;91.60
7708;DHT22;3896;48.758;8.888;2022-12-29T16:28:31;12.40;91.90
7708;DHT22;3896;48.758;8.888;2022-12-29T16:31:04;12.30;92.10
7708;DHT22;3896;48.758;8.888;2022-12-29T16:33:38;12.30;92.40
7708;DHT22;3896;48.758;8.888;2022-12-29T16:39:16;12.20;92.80
7708;DHT22;3896;48.758;8.888;2022-12-29T16:41:46;12.10;93.10
7708;DHT22;3896;48.758;8.888;2022-12-29T16:44:26;12.10;93.80
7708;DHT22;3896;48.758;8.888;2022-12-29T16:49:39;12.00;94.20
7708;DHT22;3896;48.758;8.888;2022-12-29T16:52:23;12.00;94.80
7708;DHT22;3896;48.758;8.888;2022-12-29T16:54:54;11.90;94.80
7708;DHT22;3896;48.758;8.888;2022-12-29T16:57:28;11.90;95.30
7708;DHT22;3896;48.758;8.888;2022-12-29T16:59:58;11.80;95.50
7708;DHT22;3896;48.758;8.888;2022-12-29T17:02:27;11.80;95.80
7708;DHT22;3896;48.758;8.888;2022-12-29T17:04:53;11.80;96.40
7708;DHT22;3896;48.758;8.888;2022-12-29T17:07:27;11.80;96.90
7708;DHT22;3896;48.758;8.888;2022-12-29T17:09:53;11.70;97.30
7708;DHT22;3896;48.758;8.888;2022-12-29T17:12:25;11.70;98.10
7708;DHT22;3896;48.758;8.888;2022-12-29T17:15:00;11.70;98.40
7708;DHT22;3896;48.758;8.888;2022-12-29T17:17:38;11.60;98.50
7708;DHT22;3896;48.758;8.888;2022-12-29T17:20:16;11.60;99.00
7708;DHT22;3896;48.758;8.888;2022-12-29T17:22:42;11.50;99.70
7708;DHT22;3896;48.758;8.888;2022-12-29T17:25:12;11.50;99.90
7708;DHT22;3896;48.758;8.888;2022-12-29T17:27:48;11.50;99.90
7708;DHT22;3896;48.758;8.888;2022-12-29T17:30:17;11.40;99.90
7708;DHT22;3896;48.758;8.888;2022-12-29T17:32:48;11.40;99.90
7708;DHT22;3896;48.758;8.888;2022-12-29T17:35:16;11.40;99.90
7708;DHT22;3896;48.758;8.888;2022-12-29T17:37:42;11.40;99.90
7708;DHT22;3896;48.758;8.888;2022-12-29T17:40:14;11.40;99.90
7708;DHT22;3896;48.758;8.888;2022-12-29T17:42:42;11.30;99.90
7708;DHT22;3896;48.758;8.888;2022-12-29T17:45:13;11.30;99.90
7708;DHT22;3896;48.758;8.888;2022-12-29T17:47:40;11.30;99.90
7708;DHT22;3896;48.758;8.888;2022-12-29T17:50:08;11.20;99.90
7708;DHT22;3896;48.758;8.888;2022-12-29T17:52:34;11.20;99.90
7708;DHT22;3896;48.758;8.888;2022-12-29T17:55:00;11.20;99.90
7708;DHT22;3896;48.758;8.888;2022-12-29T17:57:25;11.20;99.90
7708;DHT22;3896;48.758;8.888;2022-12-29T17:59:51;11.10;99.90
7708;DHT22;3896;48.758;8.888;2022-12-29T18:02:28;11.10;99.90
7708;DHT22;3896;48.758;8.888;2022-12-29T18:04:55;11.10;99.90
7708;DHT22;3896;48.758;8.888;2022-12-29T18:07:21;11.10;99.90
7708;DHT22;3896;48.758;8.888;2022-12-29T18:09:47;11.00;99.90
7708;DHT22;3896;48.758;8.888;2022-12-29T18:12:39;11.00;99.90
7708;DHT22;3896;48.758;8.888;2022-12-29T18:15:09;11.00;99.90
7708;DHT22;3896;48.758;8.888;2022-12-29T18:17:40;11.00;99.90
7708;DHT22;3896;48.758;8.888;2022-12-29T18:20:06;11.00;99.90
7708;DHT22;3896;48.758;8.888;2022-12-29T18:22:32;11.00;99.90
7708;DHT22;3896;48.758;8.888;2022-12-29T18:24:57;10.90;99.90
7708;DHT22;3896;48.758;8.888;2022-12-29T18:27:23;10.90;99.90
7708;DHT22;3896;48.758;8.888;2022-12-29T18:29:49;10.90;99.90